createdAt,value
2019-03-29T00:00:20.768Z,7.87
2019-03-29T00:05:22.251Z,7.60
2019-03-29T00:10:24.105Z,8.20
2019-03-29T00:15:25.604Z,8.60
2019-03-29T00:20:27.124Z,8.00
2019-03-29T00:25:29.011Z,7.80
2019-03-29T00:30:30.520Z,7.57
2019-03-29T00:35:32.042Z,7.90
2019-03-29T00:40:33.539Z,7.93
2019-03-29T00:45:35.431Z,7.77
2019-03-29T00:50:36.904Z,8.07
2019-03-29T00:55:38.566Z,9.10
2019-03-29T01:00:40.427Z,8.90
2019-03-29T01:05:41.998Z,8.73
2019-03-29T01:10:43.951Z,9.77
2019-03-29T01:15:45.497Z,9.13
2019-03-29T01:20:47.979Z,8.23
2019-03-29T01:25:49.943Z,10.20
2019-03-29T01:30:51.430Z,10.40
2019-03-29T01:35:53.227Z,9.63
2019-03-29T01:40:55.054Z,9.03
2019-03-29T01:45:56.623Z,10.40
2019-03-29T01:50:58.133Z,11.50
2019-03-29T01:55:59.817Z,12.43
2019-03-29T02:01:01.319Z,12.90
2019-03-29T02:06:03.356Z,13.73
2019-03-29T02:11:04.868Z,15.50
2019-03-29T02:16:06.342Z,14.30
2019-03-29T02:21:07.932Z,15.43
2019-03-29T02:26:09.431Z,15.90
2019-03-29T02:31:11.301Z,16.77
2019-03-29T02:36:12.900Z,17.13
2019-03-29T02:41:14.408Z,14.93
2019-03-29T02:46:16.069Z,16.57
2019-03-29T02:51:17.991Z,18.27
2019-03-29T02:56:19.836Z,18.07
2019-03-29T03:01:21.439Z,17.50
2019-03-29T03:06:23.068Z,17.63
2019-03-29T03:11:24.559Z,20.07
2019-03-29T03:16:26.239Z,19.33
2019-03-29T03:21:28.177Z,18.83
2019-03-29T03:26:29.977Z,19.03
2019-03-29T03:31:31.553Z,19.47
2019-03-29T03:36:33.247Z,18.53
2019-03-29T03:41:35.207Z,18.43
2019-03-29T03:46:36.712Z,17.43
2019-03-29T03:51:38.744Z,17.90
2019-03-29T03:56:41.250Z,18.73
2019-03-29T04:01:42.822Z,17.97
2019-03-29T04:06:44.326Z,17.47
2019-03-29T04:11:46.258Z,17.87
2019-03-29T04:16:47.793Z,17.97
2019-03-29T04:21:50.393Z,17.73
2019-03-29T04:26:53.428Z,16.53
2019-03-29T04:31:54.940Z,15.83
2019-03-29T04:36:56.460Z,17.60
2019-03-29T04:41:57.981Z,15.80
2019-03-29T04:46:59.796Z,16.80
2019-03-29T04:52:01.718Z,17.13
2019-03-29T04:57:03.214Z,16.20
2019-03-29T05:02:05.125Z,17.20
2019-03-29T05:07:06.745Z,16.00
2019-03-29T05:12:08.313Z,15.73
2019-03-29T05:17:10.130Z,16.33
2019-03-29T05:22:11.661Z,16.87
2019-03-29T05:27:13.465Z,15.23
2019-03-29T05:32:15.056Z,16.30
2019-03-29T05:37:16.543Z,16.53
2019-03-29T05:42:18.700Z,16.13
2019-03-29T05:47:20.654Z,15.30
2019-03-29T05:52:22.147Z,15.57
2019-03-29T05:57:23.637Z,17.20
2019-03-29T06:02:25.584Z,18.50
2019-03-29T06:07:27.030Z,17.57
2019-03-29T06:12:28.592Z,17.57
2019-03-29T06:17:30.683Z,18.30
2019-03-29T06:22:32.236Z,17.27
2019-03-29T06:27:34.189Z,18.13
2019-03-29T06:32:35.770Z,17.80
2019-03-29T06:37:41.973Z,18.43
2019-03-29T06:42:43.570Z,18.37
2019-03-29T06:47:44.961Z,19.20
2019-03-29T06:52:46.795Z,19.80
2019-03-29T06:57:48.671Z,20.73
2019-03-29T07:02:50.187Z,21.80
2019-03-29T07:07:51.696Z,22.63
2019-03-29T07:12:56.274Z,21.57
2019-03-29T07:17:56.714Z,21.80
2019-03-29T07:22:58.226Z,21.20
2019-03-29T07:28:00.033Z,22.53
2019-03-29T07:33:01.515Z,22.30
2019-03-29T07:38:02.986Z,20.80
2019-03-29T07:43:04.466Z,20.37
2019-03-29T07:48:06.338Z,20.67
2019-03-29T07:53:08.279Z,20.00
2019-03-29T07:58:09.754Z,20.20
2019-03-29T08:03:11.211Z,20.33
2019-03-29T08:08:23.852Z,17.97
2019-03-29T08:13:16.806Z,16.20
2019-03-29T08:18:18.588Z,17.33
2019-03-29T08:23:20.201Z,17.93
2019-03-29T08:28:21.839Z,16.53
2019-03-29T08:33:23.312Z,14.83
2019-03-29T08:38:24.904Z,16.97
2019-03-29T08:43:26.393Z,17.23
2019-03-29T08:48:27.860Z,16.67
2019-03-29T08:53:29.329Z,16.13
2019-03-29T08:58:30.898Z,17.20
2019-03-29T09:03:32.379Z,16.67
2019-03-29T09:08:34.166Z,17.20
2019-03-29T09:13:35.801Z,16.97
2019-03-29T09:18:37.270Z,16.70
2019-03-29T09:23:38.726Z,18.50
2019-03-29T09:28:40.242Z,17.47
2019-03-29T09:33:41.703Z,17.03
2019-03-29T09:38:43.824Z,16.83
2019-03-29T09:43:45.736Z,17.07
2019-03-29T09:48:47.226Z,16.43
2019-03-29T09:53:48.715Z,16.20
2019-03-29T09:58:50.325Z,15.20
2019-03-29T10:03:51.910Z,16.03
2019-03-29T10:08:53.693Z,15.77
2019-03-29T10:13:55.260Z,17.03
2019-03-29T10:18:57.155Z,14.47
2019-03-29T10:23:58.643Z,14.57
2019-03-29T10:29:00.264Z,15.70
2019-03-29T10:34:01.760Z,13.80
2019-03-29T10:39:10.288Z,13.77
2019-03-29T10:44:11.709Z,13.60
2019-03-29T10:49:13.262Z,14.20
2019-03-29T10:54:15.616Z,12.77
2019-03-29T10:59:27.169Z,11.10
2019-03-29T11:04:21.099Z,12.17
2019-03-29T11:09:23.318Z,9.77
2019-03-29T11:14:24.839Z,11.47
2019-03-29T11:19:26.314Z,10.20
2019-03-29T11:24:27.790Z,11.07
2019-03-29T11:29:29.336Z,11.37
2019-03-29T11:34:30.803Z,10.53
2019-03-29T11:39:32.269Z,9.63
2019-03-29T11:44:33.727Z,8.30
2019-03-29T11:49:35.209Z,8.17
2019-03-29T11:54:36.686Z,8.03
2019-03-29T11:59:40.162Z,9.13
2019-03-29T12:04:41.892Z,8.20
2019-03-29T12:09:43.372Z,8.47
2019-03-29T12:14:44.945Z,7.33
2019-03-29T12:19:46.430Z,5.90
2019-03-29T12:24:47.890Z,4.87
2019-03-29T12:29:49.758Z,4.73
2019-03-29T12:34:51.243Z,4.73
2019-03-29T12:39:52.716Z,4.60
2019-03-29T12:44:54.212Z,3.17
2019-03-29T12:49:55.690Z,3.73
2019-03-29T12:54:57.554Z,4.00
2019-03-29T12:59:59.164Z,3.60
2019-03-29T13:05:00.631Z,3.70
2019-03-29T13:10:06.498Z,3.73
2019-03-29T13:15:08.524Z,3.90
2019-03-29T13:20:10.496Z,4.40
2019-03-29T13:25:12.672Z,3.80
2019-03-29T13:30:17.145Z,4.73
2019-03-29T13:35:18.508Z,3.80
2019-03-29T13:40:21.405Z,3.67
2019-03-29T13:45:23.021Z,3.70
2019-03-29T13:50:24.488Z,3.80
2019-03-29T13:55:26.310Z,3.37
2019-03-29T14:00:27.863Z,3.60
2019-03-29T14:05:29.954Z,3.30
2019-03-29T14:10:31.718Z,3.13
2019-03-29T14:15:33.197Z,2.87
2019-03-29T14:20:34.871Z,3.40
2019-03-29T14:25:36.349Z,3.40
2019-03-29T14:30:38.042Z,4.47
2019-03-29T14:35:39.542Z,3.60
2019-03-29T14:40:40.999Z,3.90
2019-03-29T14:45:42.486Z,4.63
2019-03-29T14:50:44.197Z,4.80
2019-03-29T14:55:45.651Z,4.90
2019-03-29T15:00:48.767Z,5.10
2019-03-29T15:05:50.706Z,4.83
2019-03-29T15:10:52.172Z,5.33
2019-03-29T15:15:53.875Z,5.70
2019-03-29T15:20:55.462Z,5.10
2019-03-29T15:25:57.099Z,5.07
2019-03-29T15:30:58.825Z,4.67
2019-03-29T15:36:00.651Z,5.50
2019-03-29T15:41:03.571Z,4.67
2019-03-29T15:46:05.526Z,5.40
2019-03-29T15:51:07.429Z,5.10
2019-03-29T15:56:08.989Z,5.57
2019-03-29T16:01:10.479Z,6.00
2019-03-29T16:06:12.039Z,5.83
2019-03-29T16:11:17.143Z,5.17
2019-03-29T16:16:16.900Z,5.60
2019-03-29T16:21:18.394Z,5.60
2019-03-29T16:26:19.845Z,5.73
2019-03-29T16:31:22.045Z,6.70
2019-03-29T16:36:23.520Z,6.00
2019-03-29T16:41:24.996Z,6.43
2019-03-29T16:46:26.731Z,5.90
2019-03-29T16:51:28.584Z,5.80
2019-03-29T16:56:30.089Z,6.13
2019-03-29T17:01:31.648Z,6.03
2019-03-29T17:06:33.221Z,5.60
2019-03-29T17:11:34.892Z,5.57
2019-03-29T17:16:36.769Z,5.73
2019-03-29T17:21:38.347Z,6.03
2019-03-29T17:26:40.283Z,6.20
2019-03-29T17:31:42.263Z,6.23
2019-03-29T17:36:43.727Z,6.73
2019-03-29T17:41:45.241Z,6.13
2019-03-29T17:46:46.977Z,7.13
2019-03-29T17:51:48.687Z,6.73
2019-03-29T17:56:50.243Z,6.07
2019-03-29T18:01:51.759Z,6.03
2019-03-29T18:06:53.226Z,6.93
2019-03-29T18:11:54.693Z,6.83
2019-03-29T18:16:56.225Z,5.70
2019-03-29T18:21:58.147Z,6.47
2019-03-29T18:26:59.656Z,7.00
2019-03-29T18:32:02.430Z,7.47
2019-03-29T18:37:05.660Z,6.60
2019-03-29T18:42:07.527Z,6.90
2019-03-29T18:47:09.259Z,6.93
2019-03-29T18:52:10.728Z,7.30
2019-03-29T18:57:12.226Z,7.17
2019-03-29T19:02:13.976Z,6.53
2019-03-29T19:07:21.587Z,6.90
2019-03-29T19:12:23.143Z,6.93
2019-03-29T19:17:24.673Z,6.10
2019-03-29T19:22:26.350Z,6.70
2019-03-29T19:27:28.003Z,6.20
2019-03-29T19:32:29.948Z,6.27
2019-03-29T19:37:31.813Z,7.30
2019-03-29T19:42:34.308Z,7.27
2019-03-29T19:47:35.813Z,8.20
2019-03-29T19:52:37.654Z,7.77
2019-03-29T19:57:39.179Z,8.40
2019-03-29T20:02:41.631Z,11.30
2019-03-29T20:07:43.581Z,9.20
2019-03-29T20:12:45.091Z,8.50
2019-03-29T20:17:46.858Z,8.50
2019-03-29T20:22:48.436Z,8.93
2019-03-29T20:27:50.014Z,8.70
2019-03-29T20:32:51.683Z,9.00
2019-03-29T20:37:53.508Z,8.37
2019-03-29T20:42:55.421Z,9.40
2019-03-29T20:47:57.353Z,9.40
2019-03-29T20:52:59.075Z,8.90
2019-03-29T20:58:00.676Z,8.67
2019-03-29T21:03:02.157Z,9.50
2019-03-29T21:08:03.674Z,8.97
2019-03-29T21:13:07.091Z,9.33
2019-03-29T21:18:08.862Z,9.07
2019-03-29T21:23:10.608Z,8.30
2019-03-29T21:28:12.353Z,8.53
2019-03-29T21:33:13.973Z,8.03
2019-03-29T21:38:15.985Z,7.60
2019-03-29T21:43:17.792Z,8.13
2019-03-29T21:48:28.601Z,7.63
2019-03-29T21:53:22.668Z,6.93
2019-03-29T21:58:24.180Z,8.07
2019-03-29T22:03:26.015Z,9.83
2019-03-29T22:08:27.698Z,10.27
2019-03-29T22:13:29.600Z,9.97
2019-03-29T22:18:37.903Z,10.67
2019-03-29T22:23:34.820Z,11.17
2019-03-29T22:28:36.670Z,12.33
2019-03-29T22:33:38.467Z,9.47
2019-03-29T22:38:39.977Z,8.90
2019-03-29T22:43:41.523Z,8.90
2019-03-29T22:48:52.346Z,8.37
2019-03-29T22:53:46.375Z,8.13
2019-03-29T22:58:47.966Z,7.90
2019-03-29T23:03:49.750Z,8.50
2019-03-29T23:08:51.213Z,8.43
2019-03-29T23:13:52.687Z,8.93
2019-03-29T23:19:05.944Z,7.77
2019-03-29T23:23:58.720Z,12.23
2019-03-29T23:29:00.186Z,10.73
2019-03-29T23:34:01.725Z,20.57
2019-03-29T23:39:04.898Z,22.23
2019-03-29T23:44:06.709Z,20.33
2019-03-29T23:49:20.311Z,14.17
2019-03-29T23:54:11.892Z,10.80
2019-03-29T23:59:13.354Z,7.80
